Time;durP1;ratioP1;P1;durP2;ratioP2;P2;SDS_P1;SDS_P2;PMS_P1;PMS_P2;Temp;Humidity;BMP_temperature;BMP_pressure;BME280_temperature;BME280_humidity;BME280_pressure;Samples;Min_cycle;Max_cycle;Signal;HPM_P1;HPM_P2
2021/05/03 00:01:40;;;;;;;2.55;2.45;;;;;;;6.08;62.78;100893.44;6256474;22;20063;-75
2021/05/03 00:04:05;;;;;;;3.15;2.42;;;;;;;6.07;62.89;100896.38;6278417;22;20004;-74
2021/05/03 00:06:31;;;;;;;2.38;2.20;;;;;;;6.04;62.86;100886.78;6257015;22;20322;-74
2021/05/03 00:08:59;;;;;;;2.30;2.20;;;;;;;6.04;63.34;100896.81;6283786;22;20007;-73
2021/05/03 00:11:29;;;;;;;2.30;2.20;;;;;;;6.02;63.71;100888.91;6254291;22;20020;-74
2021/05/03 00:13:54;;;;;;;2.17;2.08;;;;;;;5.97;63.39;100886.00;6256544;22;20059;-72
2021/05/03 00:16:20;;;;;;;1.60;1.50;;;;;;;5.93;63.26;100871.22;6230966;22;20023;-74
2021/05/03 00:18:49;;;;;;;1.63;1.63;;;;;;;5.99;63.10;100883.94;6204223;22;20093;-74
2021/05/03 00:21:14;;;;;;;2.55;2.38;;;;;;;5.95;63.25;100871.81;6229726;22;20007;-74
2021/05/03 00:23:42;;;;;;;1.90;1.80;;;;;;;5.97;63.38;100883.31;6253330;22;20007;-73
2021/05/03 00:26:08;;;;;;;3.17;2.17;;;;;;;5.91;63.57;100876.03;6250707;22;20000;-74
2021/05/03 00:28:34;;;;;;;1.60;1.50;;;;;;;5.80;63.29;100857.75;6252582;22;20008;-75
2021/05/03 00:31:00;;;;;;;2.13;1.90;;;;;;;5.90;63.20;100879.81;6282108;22;20014;-73
2021/05/03 00:33:28;;;;;;;1.70;1.67;;;;;;;5.86;63.38;100881.31;6255870;22;20000;-75
2021/05/03 00:35:53;;;;;;;1.85;1.70;;;;;;;5.83;63.23;100879.06;6277936;22;20007;-73
2021/05/03 00:38:21;;;;;;;1.48;1.38;;;;;;;5.66;63.04;100857.88;6252598;22;20434;-75
2021/05/03 00:40:47;;;;;;;1.73;1.63;;;;;;;5.72;63.45;100877.88;6281426;22;20000;-76
2021/05/03 00:43:18;;;;;;;1.98;1.88;;;;;;;5.64;63.89;100865.44;6252390;22;20004;-75
2021/05/03 00:45:43;;;;;;;2.58;1.70;;;;;;;5.69;63.71;100878.31;6229128;22;20063;-75
2021/05/03 00:48:09;;;;;;;4.90;1.75;;;;;;;5.71;63.94;100873.50;6255944;22;20014;-75
2021/05/03 00:50:37;;;;;;;2.45;2.22;;;;;;;5.74;64.33;100870.38;6230853;22;20003;-74
2021/05/03 00:53:03;;;;;;;1.83;1.73;;;;;;;5.72;64.09;100862.44;6255890;22;20000;-74
2021/05/03 00:55:29;;;;;;;1.98;1.88;;;;;;;5.71;63.92;100865.34;6254008;22;20016;-74
2021/05/03 00:57:58;;;;;;;2.38;2.15;;;;;;;5.71;64.27;100860.78;6285254;22;20065;-73
2021/05/03 01:00:28;;;;;;;2.33;2.22;;;;;;;5.57;64.13;100838.34;6258942;22;20006;-73
2021/05/03 01:02:54;;;;;;;1.70;1.60;;;;;;;5.67;63.93;100867.69;6260680;22;20007;-73
2021/05/03 01:05:23;;;;;;;2.40;2.20;;;;;;;5.53;64.22;100858.00;6235711;22;20012;-74
2021/05/03 01:07:49;;;;;;;2.55;2.10;;;;;;;5.47;64.37;100858.91;6290773;22;20004;-75
2021/05/03 01:10:15;;;;;;;1.95;1.85;;;;;;;5.44;64.54;100870.19;6235940;22;20012;-76
2021/05/03 01:13:03;;;;;;;2.92;2.05;;;;;;;5.37;64.69;100862.09;6240860;22;20015;-78
2021/05/03 01:15:28;;;;;;;2.08;1.98;;;;;;;5.29;64.67;100852.38;6290906;22;20030;-72
2021/05/03 01:18:04;;;;;;;2.45;2.10;;;;;;;5.29;64.77;100859.69;6239000;22;20019;-74
2021/05/03 01:20:38;;;;;;;2.53;2.42;;;;;;;5.20;64.75;100854.50;6269392;22;20008;-73
2021/05/03 01:23:08;;;;;;;2.65;2.22;;;;;;;5.12;64.81;100846.63;6298752;22;20422;-74
2021/05/03 01:25:44;;;;;;;1.15;1.15;;;;;;;5.10;64.89;100842.50;6298148;22;20029;-74
2021/05/03 01:28:33;;;;;;;2.70;2.53;;;;;;;4.91;65.31;100815.31;6264348;22;20011;-76
2021/05/03 01:30:59;;;;;;;2.03;1.92;;;;;;;5.01;65.42;100840.06;6289172;22;20038;-74
2021/05/03 01:33:25;;;;;;;2.30;2.10;;;;;;;5.09;65.03;100848.97;6289551;22;20008;-73
2021/05/03 01:35:55;;;;;;;1.15;1.15;;;;;;;5.01;65.38;100845.47;6260502;22;20004;-77
2021/05/03 01:38:30;;;;;;;1.45;1.35;;;;;;;5.01;65.65;100848.19;6289789;22;20004;-77
2021/05/03 01:40:56;;;;;;;1.73;1.63;;;;;;;4.98;65.08;100840.50;6263989;22;20003;-76
2021/05/03 01:43:25;;;;;;;5.72;1.55;;;;;;;4.83;65.39;100827.25;6264127;22;20050;-75
2021/05/03 01:45:53;;;;;;;1.70;1.60;;;;;;;4.76;66.00;100826.47;6288064;22;19996;-73
2021/05/03 01:48:22;;;;;;;2.38;2.28;;;;;;;4.83;65.97;100826.41;6255460;22;20053;-73
2021/05/03 01:50:51;;;;;;;2.90;2.70;;;;;;;4.94;67.05;100833.03;6261541;22;20003;-78
2021/05/03 01:53:18;;;;;;;2.83;2.72;;;;;;;5.01;66.89;100834.63;6289038;22;20006;-77
2021/05/03 01:56:13;;;;;;;4.72;3.70;;;;;;;5.00;67.51;100827.53;6262921;22;20003;-77
2021/05/03 01:58:49;;;;;;;;;;;;;;;;;;;;;
2021/05/03 02:01:24;;;;;;;3.05;2.85;;;;;;;5.03;67.53;100831.69;6288382;22;20020;-76
2021/05/03 02:03:50;;;;;;;3.65;3.38;;;;;;;4.95;67.25;100830.09;6262650;22;20004;-77
2021/05/03 02:06:24;;;;;;;2.92;2.83;;;;;;;4.82;66.90;100816.59;6236508;22;20011;-77
2021/05/03 02:09:10;;;;;;;4.15;3.05;;;;;;;4.78;67.10;100818.13;6288517;22;20057;-76
2021/05/03 02:11:41;;;;;;;7.45;3.05;;;;;;;4.83;67.85;100835.38;6286970;22;20003;-79
2021/05/03 02:14:15;;;;;;;2.83;2.63;;;;;;;4.71;67.36;100807.31;6260963;22;20003;-78
2021/05/03 02:16:42;;;;;;;3.13;2.95;;;;;;;4.74;67.95;100811.47;6259938;22;20329;-78
2021/05/03 02:19:07;;;;;;;3.53;3.28;;;;;;;4.89;67.88;100828.22;6236061;22;20026;-76
2021/05/03 02:21:36;;;;;;;4.03;3.58;;;;;;;4.92;68.51;100825.13;6260600;22;20387;-77
2021/05/03 02:24:11;;;;;;;3.67;3.50;;;;;;;4.92;68.87;100818.84;6259415;22;20014;-77
2021/05/03 02:26:47;;;;;;;;;;;;;;;;;;;;;
2021/05/03 02:32:43;;;;;;;4.53;4.20;;;;;;;4.99;68.20;100820.44;6238443;22;20004;-76
2021/05/03 02:35:15;;;;;;;4.32;4.03;;;;;;;4.92;68.04;100800.72;6260700;22;20026;-76
2021/05/03 02:37:44;;;;;;;3.95;3.65;;;;;;;4.84;68.44;100787.44;6260872;22;19995;-77
2021/05/03 02:40:25;;;;;;;;;;;;;;;;;;;;;
2021/05/03 02:43:09;;;;;;;;;;;;;;;;;;;;;
2021/05/03 02:45:36;;;;;;;3.47;3.28;;;;;;;4.80;67.64;100789.72;6284676;22;20000;-77
2021/05/03 02:48:09;;;;;;;3.22;3.10;;;;;;;4.67;68.67;100769.00;6267305;22;19999;-76
2021/05/03 02:50:34;;;;;;;3.13;2.78;;;;;;;4.92;69.00;100802.59;6247896;22;20026;-77
2021/05/03 02:53:13;;;;;;;;;;;;;;;;;;;;;
2021/05/03 02:55:43;;;;;;;3.63;3.42;;;;;;;4.83;69.30;100773.06;6290804;22;20355;-77
2021/05/03 02:58:11;;;;;;;3.45;3.25;;;;;;;4.98;69.13;100783.56;6262022;22;20016;-76
2021/05/03 03:00:37;;;;;;;3.97;3.22;;;;;;;5.07;69.65;100801.22;6261305;22;20027;-78
2021/05/03 03:03:04;;;;;;;4.35;3.95;;;;;;;5.13;69.94;100793.28;6293638;22;20004;-78
2021/05/03 03:05:35;;;;;;;4.22;3.92;;;;;;;5.18;69.85;100790.72;6266093;22;20007;-78
2021/05/03 03:08:34;;;;;;;3.60;3.40;;;;;;;5.22;69.93;100791.94;6241223;22;20030;-78
2021/05/03 03:11:10;;;;;;;2.88;2.78;;;;;;;5.28;69.20;100784.78;6259090;22;20000;-76
2021/05/03 03:13:46;;;;;;;;;;;;;;;;;;;;;
2021/05/03 03:16:26;;;;;;;;;;;;;;;;;;;;;
2021/05/03 03:18:56;;;;;;;2.47;2.38;;;;;;;5.42;69.15;100787.16;6292770;22;20004;-77
2021/05/03 03:21:22;;;;;;;2.40;2.30;;;;;;;5.40;69.08;100789.28;6265076;22;20000;-78
2021/05/03 03:23:48;;;;;;;2.28;2.08;;;;;;;5.52;68.81;100791.22;6265297;22;20035;-77
2021/05/03 03:26:16;;;;;;;1.80;1.70;;;;;;;5.47;69.07;100777.53;6265769;22;20381;-76
2021/05/03 03:29:03;;;;;;;;;;;;;;;;;;;;;
2021/05/03 03:31:29;;;;;;;1.92;1.83;;;;;;;5.48;68.78;100757.50;6265947;22;20031;-76
2021/05/03 03:34:02;;;;;;;2.33;2.13;;;;;;;5.46;68.63;100748.72;6262437;22;20007;-77
2021/05/03 03:36:30;;;;;;;2.10;1.90;;;;;;;5.52;68.80;100747.84;6292672;22;19996;-77
2021/05/03 03:38:56;;;;;;;2.15;2.05;;;;;;;5.68;69.12;100760.81;6265343;22;20012;-76
2021/05/03 03:41:22;;;;;;;2.10;1.90;;;;;;;5.65;69.38;100764.00;6290368;22;20053;-75
2021/05/03 03:43:50;;;;;;;1.85;1.77;;;;;;;5.70;69.23;100761.41;6264771;22;20361;-75
2021/05/03 03:46:20;;;;;;;2.38;2.00;;;;;;;5.70;69.31;100756.00;6264711;22;20007;-74
2021/05/03 03:48:50;;;;;;;2.80;2.38;;;;;;;5.73;69.38;100754.72;6266848;22;20023;-76
2021/05/03 03:51:21;;;;;;;2.50;2.40;;;;;;;5.63;69.76;100743.56;6265157;22;20000;-75
2021/05/03 03:53:54;;;;;;;2.78;2.58;;;;;;;5.67;69.70;100756.44;6264064;22;20034;-76
2021/05/03 03:56:22;;;;;;;6.07;2.30;;;;;;;5.56;69.34;100730.06;6262498;22;20012;-76
2021/05/03 03:58:50;;;;;;;4.07;2.72;;;;;;;5.57;69.38;100734.44;6265589;22;19999;-75
2021/05/03 04:01:19;;;;;;;2.22;2.05;;;;;;;5.66;69.22;100760.22;6267535;22;20007;-77
2021/05/03 04:04:01;;;;;;;2.65;2.53;;;;;;;5.52;69.00;100742.41;6267412;22;20038;-76
2021/05/03 04:09:13;;;;;;;2.20;2.10;;;;;;;5.45;68.55;100744.34;6306637;22;20035;-77
2021/05/03 04:25:40;;;;;;;0.68;0.68;;;;;;;5.39;69.23;100727.13;6243597;23;20008;-76
2021/05/03 04:28:09;;;;;;;1.92;1.65;;;;;;;5.45;68.74;100736.22;6229861;23;20009;-77
2021/05/03 04:30:36;;;;;;;1.35;1.25;;;;;;;5.47;69.27;100728.69;6232482;23;20012;-76
2021/05/03 04:33:08;;;;;;;1.38;1.35;;;;;;;5.50;69.25;100722.81;6229196;23;20019;-77
2021/05/03 04:35:36;;;;;;;1.15;1.05;;;;;;;5.69;68.99;100743.47;6231526;23;20005;-76
2021/05/03 04:38:13;;;;;;;0.60;0.60;;;;;;;5.68;68.30;100739.13;6231083;23;20008;-74
2021/05/03 04:40:46;;;;;;;0.50;0.50;;;;;;;5.64;68.52;100724.34;6206370;23;20012;-76
2021/05/03 04:43:14;;;;;;;0.30;0.30;;;;;;;5.70;68.26;100736.19;6205501;23;20019;-77
2021/05/03 04:45:42;;;;;;;0.40;0.40;;;;;;;5.51;68.20;100702.78;6230191;23;20478;-77
2021/05/03 04:48:17;;;;;;;0.75;0.75;;;;;;;5.68;68.35;100736.41;6205997;23;20173;-76
2021/05/03 04:50:43;;;;;;;0.50;0.50;;;;;;;5.66;68.23;100727.66;6230758;23;20000;-76
2021/05/03 04:53:12;;;;;;;0.95;0.95;;;;;;;5.63;68.30;100728.09;6228812;23;20102;-77
2021/05/03 04:55:40;;;;;;;1.55;1.45;;;;;;;5.63;68.89;100730.81;6230746;23;20428;-77
2021/05/03 04:58:05;;;;;;;1.67;1.58;;;;;;;5.65;69.10;100730.59;6205288;23;20027;-79
2021/05/03 05:00:31;;;;;;;6.13;1.65;;;;;;;5.63;69.23;100728.09;6229557;23;20032;-79
2021/05/03 05:02:57;;;;;;;1.75;1.65;;;;;;;5.72;69.23;100732.19;6230635;23;20028;-78
2021/05/03 05:05:27;;;;;;;1.88;1.77;;;;;;;5.75;69.41;100723.59;6230987;23;20004;-78
2021/05/03 05:07:52;;;;;;;2.33;1.65;;;;;;;5.62;69.55;100699.31;6228236;23;20008;-79
2021/05/03 05:10:18;;;;;;;1.70;1.60;;;;;;;5.80;69.42;100728.34;6230804;23;20008;-78
2021/05/03 05:12:51;;;;;;;2.40;2.30;;;;;;;5.76;69.69;100717.09;6231842;23;20008;-78
2021/05/03 05:18:17;;;;;;;1.77;1.73;;;;;;;5.89;70.36;100720.72;6225256;23;20119;-77
2021/05/03 05:20:46;;;;;;;2.22;2.13;;;;;;;5.97;70.28;100717.69;6230973;23;20004;-78
2021/05/03 05:23:12;;;;;;;6.90;1.95;;;;;;;5.75;70.22;100677.47;6201633;23;20010;-79
2021/05/03 05:25:38;;;;;;;2.40;2.30;;;;;;;6.06;69.99;100727.22;6224744;23;20343;-79
2021/05/03 05:28:11;;;;;;;1.15;1.15;;;;;;;6.08;69.95;100713.41;6226683;23;20064;-78
2021/05/03 05:30:36;;;;;;;1.63;1.52;;;;;;;5.98;70.05;100692.22;6223444;23;20027;-78
2021/05/03 05:33:02;;;;;;;1.80;1.70;;;;;;;6.09;69.67;100688.75;6225626;23;20428;-79
2021/05/03 05:35:39;;;;;;;1.30;1.30;;;;;;;6.29;69.31;100714.78;6225006;23;20020;-78
2021/05/03 05:38:05;;;;;;;1.38;1.27;;;;;;;6.43;69.33;100716.25;6224774;23;20011;-77
2021/05/03 05:40:32;;;;;;;1.60;1.50;;;;;;;6.45;69.07;100708.72;6224185;23;20060;-76
2021/05/03 05:42:58;;;;;;;2.67;2.47;;;;;;;6.42;69.25;100697.47;6202420;23;20015;-78
2021/05/03 05:45:24;;;;;;;2.08;1.98;;;;;;;6.58;69.05;100723.16;6198779;23;20373;-77
2021/05/03 05:48:00;;;;;;;2.65;2.55;;;;;;;6.47;68.71;100695.72;6201914;23;20009;-79
2021/05/03 05:50:26;;;;;;;2.50;2.30;;;;;;;6.46;69.04;100702.19;6228037;23;20012;-78
2021/05/03 05:53:01;;;;;;;4.13;2.60;;;;;;;6.37;68.88;100672.91;6225034;23;20039;-78
2021/05/03 05:55:40;;;;;;;2.95;2.75;;;;;;;6.53;69.09;100682.28;6229004;23;20083;-76
2021/05/03 05:58:08;;;;;;;2.10;2.00;;;;;;;6.66;69.52;100687.50;6228101;23;20005;-76
2021/05/03 06:00:43;;;;;;;1.85;1.75;;;;;;;6.65;69.51;100669.53;6228035;23;20367;-74
2021/05/03 06:03:21;;;;;;;;;;;;;;;;;;;;;
2021/05/03 06:05:47;;;;;;;1.30;1.30;;;;;;;7.00;68.82;100687.75;6230792;23;20047;-78
2021/05/03 06:08:15;;;;;;;2.45;2.35;;;;;;;6.99;68.22;100670.63;6234271;23;20012;-78
2021/05/03 06:11:02;;;;;;;2.70;2.60;;;;;;;7.11;68.05;100681.50;6235512;23;20009;-77
2021/05/03 06:13:33;;;;;;;1.90;1.80;;;;;;;7.17;68.60;100682.47;6234623;23;20072;-75
2021/05/03 06:16:01;;;;;;;2.42;2.28;;;;;;;7.29;67.56;100680.53;6216192;22;20008;-77
2021/05/03 06:18:27;;;;;;;1.40;1.40;;;;;;;7.45;68.32;100681.72;6244385;22;20030;-74
2021/05/03 06:20:53;;;;;;;1.67;1.58;;;;;;;7.62;68.15;100675.53;6243930;22;20011;-78
2021/05/03 06:23:19;;;;;;;2.40;2.30;;;;;;;7.75;67.18;100672.53;6269806;22;20016;-75
2021/05/03 06:25:46;;;;;;;1.58;1.48;;;;;;;7.99;67.87;100677.91;6268022;22;20030;-76
2021/05/03 06:28:11;;;;;;;1.95;1.85;;;;;;;8.15;67.34;100676.31;6215875;22;20008;-75
2021/05/03 06:30:43;;;;;;;1.65;1.60;;;;;;;8.33;67.29;100675.28;6265179;22;20087;-78
2021/05/03 06:33:09;;;;;;;2.65;2.55;;;;;;;8.34;66.30;100655.94;6265157;22;20020;-77
2021/05/03 06:35:42;;;;;;;2.45;2.25;;;;;;;8.50;65.93;100659.81;6294344;22;20045;-76
2021/05/03 06:38:15;;;;;;;2.72;2.53;;;;;;;8.60;66.33;100661.03;6243678;22;20011;-79
2021/05/03 06:40:40;;;;;;;3.10;2.90;;;;;;;8.68;67.06;100669.63;6259654;22;20004;-74
2021/05/03 06:43:12;;;;;;;2.95;2.75;;;;;;;8.73;66.16;100671.59;6239013;22;20034;-75
2021/05/03 06:45:38;;;;;;;2.85;2.65;;;;;;;8.85;67.16;100675.09;6265994;22;20007;-77
2021/05/03 06:48:07;;;;;;;2.38;2.28;;;;;;;8.93;67.10;100681.22;6264047;22;20015;-76
2021/05/03 06:50:43;;;;;;;;;;;;;;;;;;;;;
2021/05/03 06:53:18;;;;;;;3.05;2.80;;;;;;;9.00;66.25;100654.59;6284097;22;20027;-75
2021/05/03 06:55:51;;;;;;;2.88;1.98;;;;;;;9.25;66.81;100684.97;6286829;22;20007;-76
2021/05/03 06:58:17;;;;;;;2.20;2.10;;;;;;;9.17;66.14;100660.84;6285943;22;20015;-77
2021/05/03 07:00:42;;;;;;;1.83;1.70;;;;;;;9.33;66.57;100681.00;6258193;22;20341;-75
2021/05/03 07:03:09;;;;;;;3.28;2.42;;;;;;;9.34;66.12;100663.53;6287503;22;20007;-76
2021/05/03 07:05:36;;;;;;;2.00;1.90;;;;;;;9.44;66.17;100666.38;6285696;22;20000;-74
2021/05/03 07:08:02;;;;;;;2.30;2.20;;;;;;;9.51;66.23;100666.22;6261613;22;20071;-76
2021/05/03 07:10:28;;;;;;;2.50;2.40;;;;;;;9.58;67.09;100664.13;6261828;22;20302;-74
2021/05/03 07:12:54;;;;;;;2.20;2.00;;;;;;;9.71;66.16;100664.81;6262479;22;20031;-75
2021/05/03 07:15:24;;;;;;;2.30;2.20;;;;;;;9.82;66.56;100650.22;6284751;22;20004;-72
2021/05/03 07:17:50;;;;;;;3.67;2.53;;;;;;;9.93;67.23;100643.78;6286117;22;20518;-74
2021/05/03 07:20:16;;;;;;;2.33;2.22;;;;;;;10.05;66.33;100648.28;6260160;22;20019;-77
2021/05/03 07:22:43;;;;;;;4.55;2.33;;;;;;;10.19;66.48;100644.06;6284938;22;20008;-76
2021/05/03 07:25:12;;;;;;;2.10;2.00;;;;;;;10.25;65.54;100642.19;6236009;22;20019;-77
2021/05/03 07:27:39;;;;;;;2.15;2.05;;;;;;;10.38;65.68;100651.91;6260688;22;20015;-75
2021/05/03 07:30:07;;;;;;;2.13;1.90;;;;;;;10.47;65.65;100644.91;6261637;22;20361;-75
2021/05/03 07:32:33;;;;;;;2.22;2.08;;;;;;;10.56;65.78;100648.81;6287743;22;19996;-76
2021/05/03 07:34:58;;;;;;;2.47;2.28;;;;;;;10.69;64.83;100663.09;6288687;22;20010;-75
2021/05/03 07:37:24;;;;;;;1.77;1.70;;;;;;;10.65;64.97;100641.75;6285425;22;20003;-75
2021/05/03 07:39:50;;;;;;;1.52;1.52;;;;;;;10.70;64.66;100648.34;6286072;22;20087;-75
2021/05/03 07:42:15;;;;;;;4.45;1.67;;;;;;;10.71;65.04;100639.88;6261828;22;20018;-76
2021/05/03 07:44:41;;;;;;;2.13;1.98;;;;;;;10.71;64.59;100630.88;6260167;22;20472;-74
2021/05/03 07:47:06;;;;;;;2.10;1.42;;;;;;;10.78;64.71;100634.22;6258801;22;20004;-75
2021/05/03 07:49:32;;;;;;;1.98;1.88;;;;;;;10.68;64.04;100628.66;6284496;22;20093;-74
2021/05/03 07:51:57;;;;;;;1.73;1.63;;;;;;;10.64;64.68;100629.19;6259458;22;20011;-75
2021/05/03 07:54:23;;;;;;;2.33;2.00;;;;;;;10.75;65.12;100619.13;6284664;22;20022;-74
2021/05/03 07:56:48;;;;;;;2.05;1.95;;;;;;;10.88;64.90;100609.66;6257491;22;20012;-74
2021/05/03 07:59:14;;;;;;;1.90;1.80;;;;;;;10.99;64.76;100614.13;6231209;22;20091;-74
2021/05/03 08:01:40;;;;;;;2.08;1.92;;;;;;;11.07;64.12;100592.78;6285705;22;20019;-74
2021/05/03 08:04:05;;;;;;;3.33;2.45;;;;;;;11.16;63.91;100592.03;6287697;22;20046;-74
2021/05/03 08:06:31;;;;;;;3.78;2.05;;;;;;;11.27;64.08;100584.69;6235672;22;20102;-76
2021/05/03 08:08:59;;;;;;;2.92;1.60;;;;;;;11.50;63.86;100590.81;6287549;22;20007;-75
2021/05/03 08:11:25;;;;;;;2.25;2.10;;;;;;;11.68;63.49;100571.16;6287367;22;20003;-74
2021/05/03 08:13:53;;;;;;;2.08;1.48;;;;;;;11.95;62.54;100578.34;6235695;22;20011;-75
2021/05/03 08:16:20;;;;;;;1.25;1.25;;;;;;;12.09;61.78;100556.75;6288213;22;20009;-76
2021/05/03 08:18:45;;;;;;;1.35;1.25;;;;;;;12.25;60.50;100565.78;6212804;22;20023;-75
2021/05/03 08:21:15;;;;;;;3.47;1.05;;;;;;;12.17;59.73;100553.44;6286078;22;20011;-77
2021/05/03 08:23:41;;;;;;;1.25;1.17;;;;;;;12.17;59.50;100558.09;6288596;22;20011;-75
2021/05/03 08:26:07;;;;;;;3.55;1.30;;;;;;;12.24;59.21;100533.97;6235643;22;20000;-73
2021/05/03 08:28:33;;;;;;;5.38;1.35;;;;;;;12.31;58.65;100540.00;6261698;22;20004;-74
2021/05/03 08:30:59;;;;;;;1.20;1.10;;;;;;;12.19;56.96;100525.75;6258013;22;20027;-75
2021/05/03 08:33:42;;;;;;;1.05;0.90;;;;;;;11.98;56.80;100528.47;6260806;22;20008;-77
2021/05/03 08:36:17;;;;;;;;;;;;;;;;;;;;;
2021/05/03 08:39:05;;;;;;;;;;;;;;;;;;;;;
2021/05/03 08:45:09;;;;;;;1.25;1.25;;;;;;;12.21;56.12;100496.16;6282665;22;20008;-78
2021/05/03 08:47:40;;;;;;;1.00;1.00;;;;;;;12.39;54.14;100547.66;6264160;22;20004;-76
2021/05/03 08:50:42;;;;;;;;;;;;;;;;;;;;;
2021/05/03 08:53:12;;;;;;;0.82;0.60;;;;;;;12.53;52.99;100503.25;6281472;22;20004;-75
2021/05/03 08:55:44;;;;;;;1.50;0.90;;;;;;;12.72;52.61;100493.31;6264335;22;19996;-75
2021/05/03 08:58:33;;;;;;;0.88;0.88;;;;;;;12.65;51.74;100457.13;6264925;22;20076;-77
2021/05/03 09:01:52;;;;;;;;;;;;;;;;;;;;;
2021/05/03 09:04:48;;;;;;;0.55;0.50;;;;;;;12.66;49.41;100480.72;6266322;22;20003;-74
2021/05/03 09:08:10;;;;;;;;;;;;;;;;;;;;;
2021/05/03 09:10:55;;;;;;;;;;;;;;;;;;;;;
2021/05/03 09:13:49;;;;;;;;;;;;;;;;;;;;;
2021/05/03 09:16:28;;;;;;;1.13;0.60;;;;;;;12.89;48.66;100473.78;6165622;23;20021;-76
2021/05/03 09:19:34;;;;;;;0.98;0.55;;;;;;;12.91;48.06;100448.81;6165292;23;20053;-75
2021/05/03 09:21:59;;;;;;;3.37;0.80;;;;;;;12.88;48.68;100450.19;6261587;22;20037;-78
2021/05/03 09:24:33;;;;;;;2.65;0.82;;;;;;;12.87;48.57;100444.97;6262971;22;20243;-73
2021/05/03 09:27:29;;;;;;;0.40;0.35;;;;;;;13.14;48.93;100441.00;6259817;22;20026;-74
2021/05/03 09:30:04;;;;;;;1.40;0.50;;;;;;;13.32;47.56;100481.53;6285776;22;20069;-73
2021/05/03 09:32:32;;;;;;;1.50;0.63;;;;;;;13.24;46.08;100432.69;6287542;22;20008;-75
2021/05/03 09:35:01;;;;;;;3.15;0.52;;;;;;;13.25;44.60;100423.38;6258715;22;20011;-72
2021/05/03 09:37:40;;;;;;;3.13;0.60;;;;;;;13.25;44.65;100398.66;6256282;22;20011;-76
2021/05/03 09:40:07;;;;;;;0.40;0.40;;;;;;;13.40;45.46;100412.31;6261135;22;20027;-74
2021/05/03 09:43:34;;;;;;;;;;;;;;;;;;;;;
2021/05/03 09:47:22;;;;;;;;;;;;;;;;;;;;;
2021/05/03 09:49:34;;;;;;;0.40;0.40;;;;;;;15.13;40.67;100404.47;6218954;22;20008;-81
2021/05/03 09:52:03;;;;;;;0.60;0.60;;;;;;;15.01;39.19;100393.09;6266088;22;20011;-84
2021/05/03 09:54:49;;;;;;;1.20;0.50;;;;;;;14.95;40.48;100383.25;6266189;22;20225;-81
2021/05/03 09:57:26;;;;;;;0.77;0.68;;;;;;;15.33;40.19;100373.06;6242425;22;20012;-80
2021/05/03 10:00:22;;;;;;;0.60;0.45;;;;;;;16.15;38.84;100372.81;6264446;22;19996;-78
2021/05/03 10:02:51;;;;;;;;;;;;;;;16.83;37.21;100359.28;6262803;22;20023;-78
2021/05/03 10:05:39;;;;;;;;;;;;;;;;;;;;;
2021/05/03 10:08:07;;;;;;;4.78;0.40;;;;;;;17.61;33.82;100365.50;6270456;22;20004;-83
2021/05/03 10:11:08;;;;;;;;;;;;;;;;;;;;;
2021/05/03 10:13:46;;;;;;;1.27;0.60;;;;;;;17.79;34.08;100354.56;6268759;22;20472;-77
2021/05/03 10:16:13;;;;;;;2.28;0.60;;;;;;;17.89;34.20;100357.06;6262512;22;20023;-74
2021/05/03 10:18:40;;;;;;;1.10;0.63;;;;;;;17.41;34.30;100349.44;6214383;22;20011;-75
2021/05/03 10:21:12;;;;;;;4.97;0.52;;;;;;;16.51;35.37;100367.41;6267518;22;20003;-78
2021/05/03 10:23:47;;;;;;;1.02;0.60;;;;;;;15.81;36.80;100340.88;6288968;22;20011;-79
2021/05/03 10:26:13;;;;;;;7.65;0.60;;;;;;;15.39;37.96;100393.09;6280395;22;19999;-77
2021/05/03 10:29:00;;;;;;;3.72;0.57;;;;;;;15.23;38.30;100394.44;6234709;22;20483;-77
2021/05/03 10:31:26;;;;;;;1.30;0.40;;;;;;;14.97;37.35;100348.00;6284355;22;20003;-77
2021/05/03 10:33:55;;;;;;;5.15;0.70;;;;;;;14.90;37.03;100358.56;6230497;22;20011;-77
2021/05/03 10:36:38;;;;;;;4.93;0.30;;;;;;;14.79;38.06;100336.69;6257099;22;20023;-77
2021/05/03 10:39:37;;;;;;;1.65;0.50;;;;;;;14.84;39.01;100316.50;6260520;22;20087;-79
2021/05/03 10:42:24;;;;;;;;;;;;;;;;;;;;;
2021/05/03 10:45:18;;;;;;;0.68;0.55;;;;;;;15.01;38.19;100305.00;6278255;22;20023;-76
2021/05/03 10:47:56;;;;;;;2.05;0.80;;;;;;;14.93;40.13;100330.44;6227420;22;20015;-75
2021/05/03 10:51:08;;;;;;;2.80;0.70;;;;;;;15.12;39.20;100311.94;6281290;22;20000;-75
2021/05/03 10:53:35;;;;;;;;;;;;;;;;;;;;;
2021/05/03 10:56:06;;;;;;;2.45;0.85;;;;;;;15.64;37.97;100300.09;6280070;22;20075;-76
2021/05/03 10:58:54;;;;;;;0.75;0.45;;;;;;;16.32;38.40;100336.34;6244426;22;20012;-75
2021/05/03 11:01:22;;;;;;;1.15;0.90;;;;;;;16.29;38.04;100284.53;6282148;22;20018;-78
2021/05/03 11:04:46;;;;;;;;;;;;;;;;;;;;;
2021/05/03 11:07:33;;;;;;;7.10;1.73;;;;;;;15.27;39.01;100241.22;6161666;23;20017;-81
2021/05/03 11:10:44;;;;;;;;;;;;;;;;;;;;;
2021/05/03 11:13:52;;;;;;;0.90;0.60;;;;;;;15.06;40.66;100257.28;6175776;23;19993;-80
2021/05/03 11:16:44;;;;;;;0.98;0.90;;;;;;;15.47;40.17;100262.88;6104674;23;20025;-81
2021/05/03 11:26:30;;;;;;;4.88;0.60;;;;;;;13.77;42.78;100228.75;6224334;23;20001;-82
2021/05/03 11:32:46;;;;;;;;;;;;;;;;;;;;;
2021/05/03 11:48:30;;;;;;;4.35;0.60;;;;;;;14.44;42.65;100203.94;5997897;23;20322;-79
2021/05/03 11:51:51;;;;;;;1.08;0.70;;;;;;;14.21;44.64;100160.84;6047416;23;20300;-82
2021/05/03 11:54:41;;;;;;;;;;;;;;;;;;;;;
2021/05/03 11:57:32;;;;;;;3.92;1.17;;;;;;;14.45;43.90;100156.03;5860938;24;20038;-82
2021/05/03 12:00:07;;;;;;;1.05;0.80;;;;;;;14.18;44.83;100177.91;5854472;24;20011;-80
2021/05/03 12:03:22;;;;;;;;;;;;;;;;;;;;;
2021/05/03 12:05:55;;;;;;;8.77;1.63;;;;;;;13.47;47.72;100196.91;6030355;23;20034;-77
2021/05/03 12:08:24;;;;;;;3.70;1.23;;;;;;;13.31;48.20;100139.38;6171577;23;20090;-74
2021/05/03 12:11:07;;;;;;;1.02;0.82;;;;;;;12.98;48.45;100169.34;6216967;23;20008;-76
2021/05/03 12:13:42;;;;;;;4.93;0.88;;;;;;;12.75;50.00;100144.28;6221419;23;20024;-73
2021/05/03 12:16:20;;;;;;;;;;;;;;;;;;;;;
2021/05/03 12:18:53;;;;;;;1.58;1.20;;;;;;;12.69;49.67;100134.47;6258995;22;20031;-74
2021/05/03 12:21:19;;;;;;;1.48;1.05;;;;;;;12.64;49.95;100130.94;6256443;22;19999;-75
2021/05/03 12:23:44;;;;;;;3.45;0.80;;;;;;;12.62;49.92;100114.78;6254030;22;20008;-74
2021/05/03 12:26:10;;;;;;;3.70;1.00;;;;;;;12.60;49.69;100117.00;6255485;22;20016;-75
2021/05/03 12:28:36;;;;;;;14.20;0.57;;;;;;;12.48;50.70;100185.09;6278442;22;20000;-74
2021/05/03 12:31:01;;;;;;;1.73;0.80;;;;;;;12.33;51.35;100170.38;6228256;22;20011;-76
2021/05/03 12:33:28;;;;;;;4.40;1.20;;;;;;;12.30;50.56;100105.16;6279750;22;20837;-76
2021/05/03 12:35:55;;;;;;;0.95;0.80;;;;;;;12.26;51.57;100103.28;6277586;22;20028;-75
2021/05/03 12:38:29;;;;;;;1.42;0.98;;;;;;;12.35;51.48;100107.88;6282285;22;20019;-75
2021/05/03 12:40:57;;;;;;;5.20;0.93;;;;;;;12.42;51.70;100090.28;6279587;22;20071;-75
2021/05/03 12:43:31;;;;;;;7.05;0.93;;;;;;;12.56;51.38;100064.63;6282809;22;20004;-74
2021/05/03 12:53:48;;;;;;;8.57;1.30;;;;;;;12.74;50.64;100041.13;6294432;22;20015;-73
2021/05/03 12:59:19;;;;;;;1.70;0.90;;;;;;;12.94;50.53;100011.84;6269549;22;20085;-77
2021/05/03 13:02:54;;;;;;;9.80;1.50;;;;;;;12.79;51.47;99979.09;6250086;22;20007;-75
2021/05/03 13:05:14;;;;;;;4.65;1.58;;;;;;;12.88;51.31;99983.66;6263054;22;20004;-78
2021/05/03 13:07:56;;;;;;;7.75;1.42;;;;;;;12.87;51.49;99981.19;6259131;22;20015;-77
2021/05/03 13:10:58;;;;;;;3.40;1.30;;;;;;;12.86;51.85;99965.84;6284635;22;20000;-77
2021/05/03 13:33:51;;;;;;;;;;;;;;;;;;;;;
2021/05/03 13:36:27;;;;;;;1.05;0.93;;;;;;;12.16;54.01;99858.31;6282399;22;20042;-80
2021/05/03 13:38:59;;;;;;;5.93;1.33;;;;;;;12.26;54.10;99886.69;6266746;22;20023;-83
2021/05/03 13:41:59;;;;;;;;;;;;;;;;;;;;;
2021/05/03 13:45:15;;;;;;;;;;;;;;;;;;;;;
2021/05/03 13:48:45;;;;;;;;;;;;;;;;;;;;;
2021/05/03 13:51:34;;;;;;;6.38;1.55;;;;;;;12.53;54.27;99886.94;6291104;22;20003;-81
2021/05/03 14:01:13;;;;;;;;;;;;;;;;;;;;;
2021/05/03 14:04:10;;;;;;;11.35;1.65;;;;;;;12.08;55.74;99849.91;6201568;23;20008;-81
2021/05/03 14:06:59;;;;;;;6.15;1.77;;;;;;;12.07;56.42;99815.38;6162265;23;20017;-76
2021/05/03 14:09:43;;;;;;;;;;;;;;;;;;;;;
2021/05/03 14:12:11;;;;;;;3.08;1.10;;;;;;;12.08;55.47;99790.41;6191603;23;20040;-75
2021/05/03 14:15:20;;;;;;;;;;;;;;;;;;;;;
2021/05/03 14:18:10;;;;;;;6.63;1.00;;;;;;;12.07;56.10;99785.22;6186107;23;20051;-75
2021/05/03 14:21:32;;;;;;;2.17;1.17;;;;;;;11.87;56.73;99762.38;6190422;23;20118;-78